sensor_id;sensor_type;location;lat;lon;timestamp;temperature;humidity
9448;DHT22;4762;48.128;11.376;2022-12-17T00:01:35;-3273.70;95.30
9448;DHT22;4762;48.128;11.376;2022-12-17T00:03:44;-3273.80;95.30
9448;DHT22;4762;48.128;11.376;2022-12-17T00:05:51;-3273.70;95.30
9448;DHT22;4762;48.128;11.376;2022-12-17T00:07:59;-3273.60;95.10
9448;DHT22;4762;48.128;11.376;2022-12-17T00:10:07;-3273.70;95.30
9448;DHT22;4762;48.128;11.376;2022-12-17T00:12:15;-3273.70;95.10
9448;DHT22;4762;48.128;11.376;2022-12-17T00:14:23;-3273.60;95.10
9448;DHT22;4762;48.128;11.376;2022-12-17T00:16:31;-3273.60;94.90
9448;DHT22;4762;48.128;11.376;2022-12-17T00:18:39;-3273.50;95.10
9448;DHT22;4762;48.128;11.376;2022-12-17T00:20:54;-3273.50;95.00
9448;DHT22;4762;48.128;11.376;2022-12-17T00:23:03;-3273.50;95.10
9448;DHT22;4762;48.128;11.376;2022-12-17T00:25:10;-3273.50;94.80
9448;DHT22;4762;48.128;11.376;2022-12-17T00:27:17;-3273.40;94.70
9448;DHT22;4762;48.128;11.376;2022-12-17T00:29:25;-3273.40;95.20
9448;DHT22;4762;48.128;11.376;2022-12-17T00:31:33;-3273.40;95.20
9448;DHT22;4762;48.128;11.376;2022-12-17T00:33:42;-3273.30;95.00
9448;DHT22;4762;48.128;11.376;2022-12-17T00:35:52;-3273.40;95.20
9448;DHT22;4762;48.128;11.376;2022-12-17T00:37:59;-3273.30;95.40
9448;DHT22;4762;48.128;11.376;2022-12-17T00:40:08;-3273.40;95.40
9448;DHT22;4762;48.128;11.376;2022-12-17T00:42:16;-3273.30;95.40
9448;DHT22;4762;48.128;11.376;2022-12-17T00:44:24;-3273.40;95.30
9448;DHT22;4762;48.128;11.376;2022-12-17T00:46:32;-3273.40;95.20
9448;DHT22;4762;48.128;11.376;2022-12-17T00:48:40;-3273.30;95.10
9448;DHT22;4762;48.128;11.376;2022-12-17T00:50:47;-3273.30;95.20
9448;DHT22;4762;48.128;11.376;2022-12-17T00:52:55;-3273.30;95.30
9448;DHT22;4762;48.128;11.376;2022-12-17T00:55:04;-3273.20;95.30
9448;DHT22;4762;48.128;11.376;2022-12-17T00:57:11;-3273.20;95.10
9448;DHT22;4762;48.128;11.376;2022-12-17T00:59:19;-3273.20;95.40
9448;DHT22;4762;48.128;11.376;2022-12-17T01:01:27;-3273.20;95.10
9448;DHT22;4762;48.128;11.376;2022-12-17T01:03:35;-3273.20;95.30
9448;DHT22;4762;48.128;11.376;2022-12-17T01:05:43;-3273.20;95.20
9448;DHT22;4762;48.128;11.376;2022-12-17T01:07:51;-3273.40;95.00
9448;DHT22;4762;48.128;11.376;2022-12-17T01:09:59;-3273.30;95.00
9448;DHT22;4762;48.128;11.376;2022-12-17T01:12:07;-3273.20;95.30
9448;DHT22;4762;48.128;11.376;2022-12-17T01:14:15;-3273.20;95.10
9448;DHT22;4762;48.128;11.376;2022-12-17T01:16:23;-3273.20;95.40
9448;DHT22;4762;48.128;11.376;2022-12-17T01:18:31;-3273.20;95.20
9448;DHT22;4762;48.128;11.376;2022-12-17T01:20:40;-3273.20;95.30
9448;DHT22;4762;48.128;11.376;2022-12-17T01:22:48;-3273.20;95.20
9448;DHT22;4762;48.128;11.376;2022-12-17T01:24:55;-3273.30;95.30
9448;DHT22;4762;48.128;11.376;2022-12-17T01:27:03;-3273.30;95.10
9448;DHT22;4762;48.128;11.376;2022-12-17T01:29:11;-3273.20;95.10
9448;DHT22;4762;48.128;11.376;2022-12-17T01:31:19;-3273.40;94.90
9448;DHT22;4762;48.128;11.376;2022-12-17T01:33:27;-3273.30;94.90
9448;DHT22;4762;48.128;11.376;2022-12-17T01:35:35;-3273.30;94.80
9448;DHT22;4762;48.128;11.376;2022-12-17T01:37:44;-3273.30;95.10
9448;DHT22;4762;48.128;11.376;2022-12-17T01:39:51;-3273.20;94.80
9448;DHT22;4762;48.128;11.376;2022-12-17T01:41:59;-3273.20;94.80
9448;DHT22;4762;48.128;11.376;2022-12-17T01:46:28;-3273.20;95.00
9448;DHT22;4762;48.128;11.376;2022-12-17T01:48:37;-3273.20;95.10
9448;DHT22;4762;48.128;11.376;2022-12-17T01:50:45;-3273.20;94.90
9448;DHT22;4762;48.128;11.376;2022-12-17T01:52:52;-3273.10;95.00
9448;DHT22;4762;48.128;11.376;2022-12-17T01:55:00;-3273.10;95.00
9448;DHT22;4762;48.128;11.376;2022-12-17T01:57:07;-3273.30;94.80
9448;DHT22;4762;48.128;11.376;2022-12-17T01:59:15;-3273.20;95.00
9448;DHT22;4762;48.128;11.376;2022-12-17T02:01:23;-3273.10;94.80
9448;DHT22;4762;48.128;11.376;2022-12-17T02:03:31;-3273.10;94.60
9448;DHT22;4762;48.128;11.376;2022-12-17T02:05:43;-3273.10;94.90
9448;DHT22;4762;48.128;11.376;2022-12-17T02:07:53;-3273.00;95.00
9448;DHT22;4762;48.128;11.376;2022-12-17T02:10:03;-3273.10;94.90
9448;DHT22;4762;48.128;11.376;2022-12-17T02:12:12;-3273.00;95.00
9448;DHT22;4762;48.128;11.376;2022-12-17T02:14:43;-3273.00;94.90
9448;DHT22;4762;48.128;11.376;2022-12-17T02:16:49;-3272.90;95.20
9448;DHT22;4762;48.128;11.376;2022-12-17T02:19:19;-3273.10;95.00
9448;DHT22;4762;48.128;11.376;2022-12-17T02:21:23;-3273.00;95.20
9448;DHT22;4762;48.128;11.376;2022-12-17T02:23:49;-3272.90;94.70
9448;DHT22;4762;48.128;11.376;2022-12-17T02:28:21;-3272.90;95.20
9448;DHT22;4762;48.128;11.376;2022-12-17T02:30:32;-3273.00;95.10
9448;DHT22;4762;48.128;11.376;2022-12-17T02:32:41;-3272.90;94.90
9448;DHT22;4762;48.128;11.376;2022-12-17T02:34:48;-3272.90;95.00
9448;DHT22;4762;48.128;11.376;2022-12-17T02:36:56;-3272.90;95.00
9448;DHT22;4762;48.128;11.376;2022-12-17T02:39:04;-3272.90;95.20
9448;DHT22;4762;48.128;11.376;2022-12-17T02:41:36;-3272.90;95.10
9448;DHT22;4762;48.128;11.376;2022-12-17T02:43:42;-3272.90;95.10
9448;DHT22;4762;48.128;11.376;2022-12-17T02:45:50;-3273.00;94.80
9448;DHT22;4762;48.128;11.376;2022-12-17T02:47:58;-3272.90;95.20
9448;DHT22;4762;48.128;11.376;2022-12-17T02:50:06;-3273.00;95.10
9448;DHT22;4762;48.128;11.376;2022-12-17T02:52:14;-3272.90;95.10
9448;DHT22;4762;48.128;11.376;2022-12-17T02:54:22;-3273.00;95.20
9448;DHT22;4762;48.128;11.376;2022-12-17T02:56:31;-3272.90;94.90
9448;DHT22;4762;48.128;11.376;2022-12-17T02:58:39;-3272.90;94.90
9448;DHT22;4762;48.128;11.376;2022-12-17T03:00:46;-3273.00;94.90
9448;DHT22;4762;48.128;11.376;2022-12-17T03:02:54;-3273.00;95.20
9448;DHT22;4762;48.128;11.376;2022-12-17T03:05:02;-3273.00;95.00
9448;DHT22;4762;48.128;11.376;2022-12-17T03:07:10;-3273.00;95.20
9448;DHT22;4762;48.128;11.376;2022-12-17T03:09:18;-3273.10;95.00
9448;DHT22;4762;48.128;11.376;2022-12-17T03:11:27;-3272.90;95.00
9448;DHT22;4762;48.128;11.376;2022-12-17T03:13:35;-3272.90;94.90
9448;DHT22;4762;48.128;11.376;2022-12-17T03:15:43;-3273.00;94.90
9448;DHT22;4762;48.128;11.376;2022-12-17T03:17:52;-3272.90;94.90
9448;DHT22;4762;48.128;11.376;2022-12-17T03:19:59;-3272.90;94.90
9448;DHT22;4762;48.128;11.376;2022-12-17T03:22:07;-3273.00;95.10
9448;DHT22;4762;48.128;11.376;2022-12-17T03:24:15;-3272.90;95.10
9448;DHT22;4762;48.128;11.376;2022-12-17T03:26:23;-3272.90;94.90
9448;DHT22;4762;48.128;11.376;2022-12-17T03:28:31;-3272.90;95.10
9448;DHT22;4762;48.128;11.376;2022-12-17T03:30:39;-3272.90;95.30
9448;DHT22;4762;48.128;11.376;2022-12-17T03:32:46;-3273.00;95.20
9448;DHT22;4762;48.128;11.376;2022-12-17T03:34:54;-3272.90;95.20
9448;DHT22;4762;48.128;11.376;2022-12-17T03:37:02;-3272.90;95.20
9448;DHT22;4762;48.128;11.376;2022-12-17T03:39:10;-3273.00;95.10
9448;DHT22;4762;48.128;11.376;2022-12-17T03:41:18;-3272.90;95.00
9448;DHT22;4762;48.128;11.376;2022-12-17T03:43:26;-3272.90;94.90
9448;DHT22;4762;48.128;11.376;2022-12-17T03:45:35;-3272.90;94.50
9448;DHT22;4762;48.128;11.376;2022-12-17T03:47:43;-3272.80;94.80
9448;DHT22;4762;48.128;11.376;2022-12-17T03:49:50;-3272.90;94.90
9448;DHT22;4762;48.128;11.376;2022-12-17T03:51:58;-3272.80;94.90
9448;DHT22;4762;48.128;11.376;2022-12-17T03:54:06;-3272.90;95.00
9448;DHT22;4762;48.128;11.376;2022-12-17T03:56:14;-3272.80;94.90
9448;DHT22;4762;48.128;11.376;2022-12-17T04:00:48;-3272.80;94.60
9448;DHT22;4762;48.128;11.376;2022-12-17T04:02:56;-3272.90;94.50
9448;DHT22;4762;48.128;11.376;2022-12-17T04:05:04;-3272.90;94.30
9448;DHT22;4762;48.128;11.376;2022-12-17T04:07:12;-3272.90;94.80
9448;DHT22;4762;48.128;11.376;2022-12-17T04:09:20;-3272.80;94.50
9448;DHT22;4762;48.128;11.376;2022-12-17T04:11:28;-3272.80;94.30
9448;DHT22;4762;48.128;11.376;2022-12-17T04:13:36;-3272.70;94.50
9448;DHT22;4762;48.128;11.376;2022-12-17T04:15:51;-3272.80;94.50
9448;DHT22;4762;48.128;11.376;2022-12-17T04:17:59;-3272.80;94.20
9448;DHT22;4762;48.128;11.376;2022-12-17T04:20:07;-3272.70;93.90
9448;DHT22;4762;48.128;11.376;2022-12-17T04:22:15;-3272.70;93.80
9448;DHT22;4762;48.128;11.376;2022-12-17T04:24:23;-3272.70;94.30
9448;DHT22;4762;48.128;11.376;2022-12-17T04:26:30;-3272.60;94.10
9448;DHT22;4762;48.128;11.376;2022-12-17T04:28:38;-3272.60;94.00
9448;DHT22;4762;48.128;11.376;2022-12-17T04:30:46;-3272.50;94.20
9448;DHT22;4762;48.128;11.376;2022-12-17T04:32:54;-3272.60;94.30
9448;DHT22;4762;48.128;11.376;2022-12-17T04:35:02;-3272.70;94.30
9448;DHT22;4762;48.128;11.376;2022-12-17T04:37:10;-3272.60;93.90
9448;DHT22;4762;48.128;11.376;2022-12-17T04:39:18;-3272.60;94.00
9448;DHT22;4762;48.128;11.376;2022-12-17T04:41:26;-3272.70;94.20
9448;DHT22;4762;48.128;11.376;2022-12-17T04:43:34;-3272.60;93.90
9448;DHT22;4762;48.128;11.376;2022-12-17T04:45:41;-3272.70;94.40
9448;DHT22;4762;48.128;11.376;2022-12-17T04:47:49;-3272.70;94.00
9448;DHT22;4762;48.128;11.376;2022-12-17T04:49:57;-3272.60;93.70
9448;DHT22;4762;48.128;11.376;2022-12-17T04:52:05;-3272.60;93.90
9448;DHT22;4762;48.128;11.376;2022-12-17T04:54:13;-3272.40;93.50
9448;DHT22;4762;48.128;11.376;2022-12-17T04:56:21;-3272.40;93.40
9448;DHT22;4762;48.128;11.376;2022-12-17T04:58:29;-3272.30;93.20
9448;DHT22;4762;48.128;11.376;2022-12-17T05:00:37;-3272.30;93.60
9448;DHT22;4762;48.128;11.376;2022-12-17T05:02:44;-3272.30;93.60
9448;DHT22;4762;48.128;11.376;2022-12-17T05:04:52;-3272.20;93.50
9448;DHT22;4762;48.128;11.376;2022-12-17T05:07:10;-3272.30;93.50
9448;DHT22;4762;48.128;11.376;2022-12-17T05:09:18;-3272.20;93.50
9448;DHT22;4762;48.128;11.376;2022-12-17T05:11:26;-3272.10;93.30
9448;DHT22;4762;48.128;11.376;2022-12-17T05:13:34;-3272.20;93.60
9448;DHT22;4762;48.128;11.376;2022-12-17T05:15:42;-3272.10;93.20
9448;DHT22;4762;48.128;11.376;2022-12-17T05:17:50;-3272.00;93.00
9448;DHT22;4762;48.128;11.376;2022-12-17T05:19:57;-3271.90;92.90
9448;DHT22;4762;48.128;11.376;2022-12-17T05:22:05;-3271.80;92.50
9448;DHT22;4762;48.128;11.376;2022-12-17T05:24:13;-3271.70;92.60
9448;DHT22;4762;48.128;11.376;2022-12-17T05:26:22;-3271.80;93.10
9448;DHT22;4762;48.128;11.376;2022-12-17T05:28:29;-3271.70;92.70
9448;DHT22;4762;48.128;11.376;2022-12-17T05:30:38;-3271.60;92.80
9448;DHT22;4762;48.128;11.376;2022-12-17T05:33:01;-3271.60;92.80
9448;DHT22;4762;48.128;11.376;2022-12-17T05:35:08;-3271.50;92.60
9448;DHT22;4762;48.128;11.376;2022-12-17T05:37:16;-3271.50;92.50
9448;DHT22;4762;48.128;11.376;2022-12-17T05:39:24;-3271.30;92.50
9448;DHT22;4762;48.128;11.376;2022-12-17T05:41:33;-3271.10;92.40
9448;DHT22;4762;48.128;11.376;2022-12-17T05:43:41;-3270.50;90.30
9448;DHT22;4762;48.128;11.376;2022-12-17T05:45:49;-3270.10;90.10
9448;DHT22;4762;48.128;11.376;2022-12-17T05:47:57;-3270.10;91.50
9448;DHT22;4762;48.128;11.376;2022-12-17T05:50:05;-3270.10;91.80
9448;DHT22;4762;48.128;11.376;2022-12-17T05:52:13;-3270.10;91.70
9448;DHT22;4762;48.128;11.376;2022-12-17T05:54:20;-3270.30;92.60
9448;DHT22;4762;48.128;11.376;2022-12-17T05:56:28;-3270.40;92.80
9448;DHT22;4762;48.128;11.376;2022-12-17T05:58:37;-3270.50;92.90
9448;DHT22;4762;48.128;11.376;2022-12-17T06:00:44;-3270.60;93.10
9448;DHT22;4762;48.128;11.376;2022-12-17T06:02:57;-3270.70;92.70
9448;DHT22;4762;48.128;11.376;2022-12-17T06:05:03;-3270.60;93.00
9448;DHT22;4762;48.128;11.376;2022-12-17T06:07:11;-3270.20;91.70
9448;DHT22;4762;48.128;11.376;2022-12-17T06:09:19;-3270.00;91.10
9448;DHT22;4762;48.128;11.376;2022-12-17T06:11:27;-3269.90;91.40
9448;DHT22;4762;48.128;11.376;2022-12-17T06:13:35;-3270.00;92.40
9448;DHT22;4762;48.128;11.376;2022-12-17T06:15:47;-3270.10;92.80
9448;DHT22;4762;48.128;11.376;2022-12-17T06:17:52;-3269.80;92.10
9448;DHT22;4762;48.128;11.376;2022-12-17T06:19:59;-3269.70;91.50
9448;DHT22;4762;48.128;11.376;2022-12-17T06:22:07;-3269.80;92.10
9448;DHT22;4762;48.128;11.376;2022-12-17T06:24:15;-3269.80;92.30
9448;DHT22;4762;48.128;11.376;2022-12-17T06:28:54;-3269.60;91.70
9448;DHT22;4762;48.128;11.376;2022-12-17T06:31:02;-3269.70;92.10
9448;DHT22;4762;48.128;11.376;2022-12-17T06:33:10;-3269.50;92.00
9448;DHT22;4762;48.128;11.376;2022-12-17T06:35:18;-3269.60;92.40
9448;DHT22;4762;48.128;11.376;2022-12-17T06:37:26;-3269.60;92.60
9448;DHT22;4762;48.128;11.376;2022-12-17T06:39:34;-3269.60;92.00
9448;DHT22;4762;48.128;11.376;2022-12-17T06:41:42;-3269.30;92.00
9448;DHT22;4762;48.128;11.376;2022-12-17T06:43:50;-3269.30;91.70
9448;DHT22;4762;48.128;11.376;2022-12-17T06:45:57;-3269.30;92.20
9448;DHT22;4762;48.128;11.376;2022-12-17T06:48:06;-3269.50;92.90
9448;DHT22;4762;48.128;11.376;2022-12-17T06:50:13;-3269.40;92.70
9448;DHT22;4762;48.128;11.376;2022-12-17T06:52:21;-3269.10;91.40
9448;DHT22;4762;48.128;11.376;2022-12-17T06:54:29;-3268.70;89.90
9448;DHT22;4762;48.128;11.376;2022-12-17T06:56:37;-3268.70;91.10
9448;DHT22;4762;48.128;11.376;2022-12-17T06:58:45;-3268.90;92.50
9448;DHT22;4762;48.128;11.376;2022-12-17T07:00:53;-3268.40;90.80
9448;DHT22;4762;48.128;11.376;2022-12-17T07:03:01;-3268.40;90.80
9448;DHT22;4762;48.128;11.376;2022-12-17T07:05:09;-3268.00;90.00
9448;DHT22;4762;48.128;11.376;2022-12-17T07:07:17;-3268.20;91.40
9448;DHT22;4762;48.128;11.376;2022-12-17T07:09:25;-3268.50;92.40
9448;DHT22;4762;48.128;11.376;2022-12-17T07:11:33;-3268.30;91.60
9448;DHT22;4762;48.128;11.376;2022-12-17T07:13:42;-3268.60;92.30
9448;DHT22;4762;48.128;11.376;2022-12-17T07:15:51;-3268.80;92.70
9448;DHT22;4762;48.128;11.376;2022-12-17T07:18:00;-3269.10;93.00
9448;DHT22;4762;48.128;11.376;2022-12-17T07:20:07;-3269.20;92.90
9448;DHT22;4762;48.128;11.376;2022-12-17T07:22:15;-3269.20;92.40
9448;DHT22;4762;48.128;11.376;2022-12-17T07:24:44;-3269.30;92.00
9448;DHT22;4762;48.128;11.376;2022-12-17T07:26:52;-3269.30;92.30
9448;DHT22;4762;48.128;11.376;2022-12-17T07:29:00;-3269.30;92.10
9448;DHT22;4762;48.128;11.376;2022-12-17T07:31:08;-3269.40;92.50
9448;DHT22;4762;48.128;11.376;2022-12-17T07:33:15;-3269.40;92.20
9448;DHT22;4762;48.128;11.376;2022-12-17T07:35:23;-3269.50;92.20
9448;DHT22;4762;48.128;11.376;2022-12-17T07:37:31;-3269.50;92.10
9448;DHT22;4762;48.128;11.376;2022-12-17T07:39:39;-3269.60;92.50
9448;DHT22;4762;48.128;11.376;2022-12-17T07:41:47;-3269.20;91.40
9448;DHT22;4762;48.128;11.376;2022-12-17T07:43:55;-3269.10;91.00
9448;DHT22;4762;48.128;11.376;2022-12-17T07:46:03;-3269.30;91.70
9448;DHT22;4762;48.128;11.376;2022-12-17T07:48:11;-3269.50;92.80
9448;DHT22;4762;48.128;11.376;2022-12-17T07:50:19;-3269.50;93.00
9448;DHT22;4762;48.128;11.376;2022-12-17T07:52:28;-3269.70;93.00
9448;DHT22;4762;48.128;11.376;2022-12-17T07:54:37;-3269.70;93.00
9448;DHT22;4762;48.128;11.376;2022-12-17T07:56:47;-3269.70;92.60
9448;DHT22;4762;48.128;11.376;2022-12-17T07:58:58;-3269.70;92.60
9448;DHT22;4762;48.128;11.376;2022-12-17T08:01:07;-3269.80;92.60
9448;DHT22;4762;48.128;11.376;2022-12-17T08:03:15;-3269.90;92.80
9448;DHT22;4762;48.128;11.376;2022-12-17T08:05:26;-3269.80;92.80
9448;DHT22;4762;48.128;11.376;2022-12-17T08:07:34;-3269.70;92.60
9448;DHT22;4762;48.128;11.376;2022-12-17T08:09:56;-3269.70;92.30
9448;DHT22;4762;48.128;11.376;2022-12-17T08:12:11;-3269.70;92.30
9448;DHT22;4762;48.128;11.376;2022-12-17T08:14:19;-3269.60;92.20
9448;DHT22;4762;48.128;11.376;2022-12-17T08:16:37;-3269.60;92.30
9448;DHT22;4762;48.128;11.376;2022-12-17T08:18:45;-3269.80;92.60
9448;DHT22;4762;48.128;11.376;2022-12-17T08:20:53;-3269.80;92.10
9448;DHT22;4762;48.128;11.376;2022-12-17T08:23:02;-3269.70;91.90
9448;DHT22;4762;48.128;11.376;2022-12-17T08:25:10;-3269.80;92.30
9448;DHT22;4762;48.128;11.376;2022-12-17T08:27:18;-3269.60;91.40
9448;DHT22;4762;48.128;11.376;2022-12-17T08:29:26;-3269.80;92.20
9448;DHT22;4762;48.128;11.376;2022-12-17T08:31:34;-3269.50;91.10
9448;DHT22;4762;48.128;11.376;2022-12-17T08:33:41;-3269.70;92.10
9448;DHT22;4762;48.128;11.376;2022-12-17T08:35:53;-3270.00;92.70
9448;DHT22;4762;48.128;11.376;2022-12-17T08:38:01;-3270.00;92.60
9448;DHT22;4762;48.128;11.376;2022-12-17T08:40:08;-3270.00;92.20
9448;DHT22;4762;48.128;11.376;2022-12-17T08:42:17;-3270.10;92.30
9448;DHT22;4762;48.128;11.376;2022-12-17T08:44:25;-3270.00;91.80
9448;DHT22;4762;48.128;11.376;2022-12-17T08:46:33;-3270.00;91.70
9448;DHT22;4762;48.128;11.376;2022-12-17T08:48:41;-3270.10;91.70
9448;DHT22;4762;48.128;11.376;2022-12-17T08:50:49;-3270.20;92.10
9448;DHT22;4762;48.128;11.376;2022-12-17T08:52:58;-3270.30;92.00
9448;DHT22;4762;48.128;11.376;2022-12-17T08:55:06;-3270.30;91.90
9448;DHT22;4762;48.128;11.376;2022-12-17T08:57:14;-3270.40;92.10
9448;DHT22;4762;48.128;11.376;2022-12-17T08:59:22;-3270.50;92.30
9448;DHT22;4762;48.128;11.376;2022-12-17T09:01:30;-3270.50;92.30
9448;DHT22;4762;48.128;11.376;2022-12-17T09:03:38;-3270.50;91.90
9448;DHT22;4762;48.128;11.376;2022-12-17T09:05:46;-3270.60;91.90
9448;DHT22;4762;48.128;11.376;2022-12-17T09:07:59;-3270.60;91.70
9448;DHT22;4762;48.128;11.376;2022-12-17T09:10:07;-3270.70;91.80
9448;DHT22;4762;48.128;11.376;2022-12-17T09:12:15;-3270.70;92.10
9448;DHT22;4762;48.128;11.376;2022-12-17T09:14:23;-3270.70;92.30
9448;DHT22;4762;48.128;11.376;2022-12-17T09:16:30;-3270.70;92.10
9448;DHT22;4762;48.128;11.376;2022-12-17T09:18:39;-3270.90;92.20
9448;DHT22;4762;48.128;11.376;2022-12-17T09:20:53;-3270.90;92.30
9448;DHT22;4762;48.128;11.376;2022-12-17T09:23:00;-3270.90;92.50
9448;DHT22;4762;48.128;11.376;2022-12-17T09:25:08;-3271.00;92.30
9448;DHT22;4762;48.128;11.376;2022-12-17T09:27:16;-3271.20;92.60
9448;DHT22;4762;48.128;11.376;2022-12-17T09:29:24;-3271.70;92.90
9448;DHT22;4762;48.128;11.376;2022-12-17T09:31:32;-3272.40;93.80
9448;DHT22;4762;48.128;11.376;2022-12-17T09:33:40;-3272.90;93.90
9448;DHT22;4762;48.128;11.376;2022-12-17T09:35:48;-3273.40;93.20
9448;DHT22;4762;48.128;11.376;2022-12-17T09:38:09;-3273.60;92.20
9448;DHT22;4762;48.128;11.376;2022-12-17T09:40:15;-3273.70;91.60
9448;DHT22;4762;48.128;11.376;2022-12-17T09:42:44;-3273.70;90.90
9448;DHT22;4762;48.128;11.376;2022-12-17T09:44:55;-3273.90;90.80
9448;DHT22;4762;48.128;11.376;2022-12-17T09:48:12;-3274.00;90.60
9448;DHT22;4762;48.128;11.376;2022-12-17T09:54:33;-3274.40;89.60
9448;DHT22;4762;48.128;11.376;2022-12-17T09:56:43;-3274.60;89.80
9448;DHT22;4762;48.128;11.376;2022-12-17T09:58:51;-3274.60;89.60
9448;DHT22;4762;48.128;11.376;2022-12-17T10:00:59;-3274.20;88.70
9448;DHT22;4762;48.128;11.376;2022-12-17T10:03:20;-3273.70;88.40
9448;DHT22;4762;48.128;11.376;2022-12-17T10:05:27;-3274.00;89.50
9448;DHT22;4762;48.128;11.376;2022-12-17T10:07:35;-3274.20;90.00
9448;DHT22;4762;48.128;11.376;2022-12-17T10:09:43;-3274.60;89.70
9448;DHT22;4762;48.128;11.376;2022-12-17T10:11:51;-3274.90;90.00
9448;DHT22;4762;48.128;11.376;2022-12-17T10:13:59;-3275.40;90.10
9448;DHT22;4762;48.128;11.376;2022-12-17T10:18:47;-3276.30;90.20
9448;DHT22;4762;48.128;11.376;2022-12-17T10:20:57;-3276.70;89.10
9448;DHT22;4762;48.128;11.376;2022-12-17T10:23:05;-3276.50;87.00
9448;DHT22;4762;48.128;11.376;2022-12-17T10:25:15;0.20;88.80
9448;DHT22;4762;48.128;11.376;2022-12-17T10:27:22;0.60;88.50
9448;DHT22;4762;48.128;11.376;2022-12-17T10:29:30;0.70;88.10
9448;DHT22;4762;48.128;11.376;2022-12-17T10:31:38;0.50;86.80
9448;DHT22;4762;48.128;11.376;2022-12-17T10:33:47;0.70;87.70
9448;DHT22;4762;48.128;11.376;2022-12-17T10:35:55;0.80;86.40
9448;DHT22;4762;48.128;11.376;2022-12-17T10:38:10;0.90;86.00
9448;DHT22;4762;48.128;11.376;2022-12-17T10:40:23;0.80;86.50
9448;DHT22;4762;48.128;11.376;2022-12-17T10:42:36;0.20;85.40
9448;DHT22;4762;48.128;11.376;2022-12-17T10:44:37;0.00;85.20
9448;DHT22;4762;48.128;11.376;2022-12-17T10:46:54;0.30;86.70
9448;DHT22;4762;48.128;11.376;2022-12-17T10:49:04;0.60;86.10
9448;DHT22;4762;48.128;11.376;2022-12-17T10:51:27;0.70;86.70
9448;DHT22;4762;48.128;11.376;2022-12-17T10:53:36;1.00;86.90
9448;DHT22;4762;48.128;11.376;2022-12-17T10:55:49;1.00;85.20
9448;DHT22;4762;48.128;11.376;2022-12-17T10:58:01;1.00;85.40
9448;DHT22;4762;48.128;11.376;2022-12-17T11:00:22;1.20;86.00
9448;DHT22;4762;48.128;11.376;2022-12-17T11:02:30;1.60;85.30
9448;DHT22;4762;48.128;11.376;2022-12-17T11:04:37;1.80;83.90
9448;DHT22;4762;48.128;11.376;2022-12-17T11:06:46;1.60;86.00
9448;DHT22;4762;48.128;11.376;2022-12-17T11:09:13;2.10;86.30
9448;DHT22;4762;48.128;11.376;2022-12-17T11:11:23;1.70;83.40
9448;DHT22;4762;48.128;11.376;2022-12-17T11:13:35;1.30;83.30
9448;DHT22;4762;48.128;11.376;2022-12-17T11:15:50;1.60;85.50
9448;DHT22;4762;48.128;11.376;2022-12-17T11:17:58;1.90;85.80
9448;DHT22;4762;48.128;11.376;2022-12-17T11:20:07;1.20;83.80
9448;DHT22;4762;48.128;11.376;2022-12-17T11:22:25;1.60;86.30
9448;DHT22;4762;48.128;11.376;2022-12-17T11:24:39;2.20;85.40
9448;DHT22;4762;48.128;11.376;2022-12-17T11:26:46;2.30;85.30
9448;DHT22;4762;48.128;11.376;2022-12-17T11:28:54;1.70;83.10
9448;DHT22;4762;48.128;11.376;2022-12-17T11:31:09;2.40;86.20
9448;DHT22;4762;48.128;11.376;2022-12-17T11:33:21;2.00;82.50
9448;DHT22;4762;48.128;11.376;2022-12-17T11:35:35;2.40;84.00
9448;DHT22;4762;48.128;11.376;2022-12-17T11:37:54;2.40;85.00
9448;DHT22;4762;48.128;11.376;2022-12-17T11:40:06;2.60;84.90
9448;DHT22;4762;48.128;11.376;2022-12-17T11:42:23;2.90;84.70
9448;DHT22;4762;48.128;11.376;2022-12-17T11:45:06;2.80;84.10
9448;DHT22;4762;48.128;11.376;2022-12-17T11:47:03;2.80;83.80
9448;DHT22;4762;48.128;11.376;2022-12-17T11:49:31;2.50;83.00
9448;DHT22;4762;48.128;11.376;2022-12-17T11:51:50;2.80;83.80
9448;DHT22;4762;48.128;11.376;2022-12-17T11:54:00;2.70;81.20
9448;DHT22;4762;48.128;11.376;2022-12-17T11:56:22;2.30;82.20
9448;DHT22;4762;48.128;11.376;2022-12-17T11:58:38;0.60;80.10
9448;DHT22;4762;48.128;11.376;2022-12-17T12:00:51;-3276.50;81.90
9448;DHT22;4762;48.128;11.376;2022-12-17T12:05:23;-3275.50;85.30
9448;DHT22;4762;48.128;11.376;2022-12-17T12:07:32;-3275.40;85.30
9448;DHT22;4762;48.128;11.376;2022-12-17T12:09:56;-3275.00;86.00
9448;DHT22;4762;48.128;11.376;2022-12-17T12:12:20;-3275.10;86.20
9448;DHT22;4762;48.128;11.376;2022-12-17T12:14:35;-3274.90;85.70
9448;DHT22;4762;48.128;11.376;2022-12-17T12:16:44;-3274.40;85.90
9448;DHT22;4762;48.128;11.376;2022-12-17T12:18:58;-3274.50;87.30
9448;DHT22;4762;48.128;11.376;2022-12-17T12:21:22;-3274.20;86.90
9448;DHT22;4762;48.128;11.376;2022-12-17T12:26:02;-3274.30;88.20
9448;DHT22;4762;48.128;11.376;2022-12-17T12:28:18;-3274.00;86.60
9448;DHT22;4762;48.128;11.376;2022-12-17T12:30:21;-3274.20;88.00
9448;DHT22;4762;48.128;11.376;2022-12-17T12:32:45;-3274.30;87.30
9448;DHT22;4762;48.128;11.376;2022-12-17T12:34:51;-3274.20;86.50
9448;DHT22;4762;48.128;11.376;2022-12-17T12:36:59;-3274.10;86.60
9448;DHT22;4762;48.128;11.376;2022-12-17T12:39:09;-3274.10;87.00
9448;DHT22;4762;48.128;11.376;2022-12-17T12:41:30;-3273.90;87.40
9448;DHT22;4762;48.128;11.376;2022-12-17T12:43:36;-3274.10;88.10
9448;DHT22;4762;48.128;11.376;2022-12-17T12:48:21;-3274.40;88.40
9448;DHT22;4762;48.128;11.376;2022-12-17T12:50:35;-3273.90;86.50
9448;DHT22;4762;48.128;11.376;2022-12-17T12:52:37;-3274.20;87.80
9448;DHT22;4762;48.128;11.376;2022-12-17T12:54:51;-3274.00;87.50
9448;DHT22;4762;48.128;11.376;2022-12-17T12:56:58;-3274.10;88.10
9448;DHT22;4762;48.128;11.376;2022-12-17T12:59:10;-3273.80;87.20
9448;DHT22;4762;48.128;11.376;2022-12-17T13:01:19;-3273.70;87.70
9448;DHT22;4762;48.128;11.376;2022-12-17T13:05:49;-3273.70;88.00
9448;DHT22;4762;48.128;11.376;2022-12-17T13:07:59;-3273.50;87.80
9448;DHT22;4762;48.128;11.376;2022-12-17T13:09:54;-3273.50;87.20
9448;DHT22;4762;48.128;11.376;2022-12-17T13:12:21;-3273.50;88.80
9448;DHT22;4762;48.128;11.376;2022-12-17T13:14:25;-3273.60;88.50
9448;DHT22;4762;48.128;11.376;2022-12-17T13:16:30;-3273.70;87.80
9448;DHT22;4762;48.128;11.376;2022-12-17T13:18:33;-3273.30;86.20
9448;DHT22;4762;48.128;11.376;2022-12-17T13:20:34;-3273.30;88.10
9448;DHT22;4762;48.128;11.376;2022-12-17T13:22:47;-3273.30;88.40
9448;DHT22;4762;48.128;11.376;2022-12-17T13:24:39;-3273.40;88.40
9448;DHT22;4762;48.128;11.376;2022-12-17T13:26:42;-3273.30;87.20
9448;DHT22;4762;48.128;11.376;2022-12-17T13:28:58;-3273.10;87.20
9448;DHT22;4762;48.128;11.376;2022-12-17T13:31:03;-3273.10;87.70
9448;DHT22;4762;48.128;11.376;2022-12-17T13:33:23;-3273.10;88.10
9448;DHT22;4762;48.128;11.376;2022-12-17T13:37:59;-3273.20;87.80
9448;DHT22;4762;48.128;11.376;2022-12-17T13:40:19;-3273.10;88.10
9448;DHT22;4762;48.128;11.376;2022-12-17T13:42:25;-3272.90;88.60
9448;DHT22;4762;48.128;11.376;2022-12-17T13:44:27;-3272.80;88.20
9448;DHT22;4762;48.128;11.376;2022-12-17T13:46:29;-3272.40;86.30
9448;DHT22;4762;48.128;11.376;2022-12-17T13:48:30;-3272.20;87.10